Terminal Aerodrome Forecast
Issued by NWS

Home | Current Version | Previous Version | Text Only | Print | Product List | Glossary On
Versions: 1 2 3 4 5 6 7 8 9 10 11 12 13 14 15 16 17 18 19 20 21 22 23 24 25 26 27 28 29 30
000
FTUS42 KCAE 280538
TAFDNL
TAF
KDNL 280538Z 2806/2906 07008KT P6SM SCT015 BKN040
     FM280900 04006KT P6SM BKN015
     FM281100 04003KT P6SM BKN008
     FM281400 07008KT P6SM BKN015
     FM281700 08008KT P6SM BKN035
     FM290200 09003KT P6SM SCT250=

USA.gov is the U.S. government's official web portal to all federal, state and local government web resources and services.